AXY2655 MKJS-KMIA
Flight info
| Callsign | AXY2655 |
|---|---|
| Flight time | 1h 13m |
| Altitude | 40000 |
| Route | ALTIB UM779 ZEUSS VIICE2 |
| Aircraft | A359/H-SDE2E3GHIJ3J4J5LM1ORWXY/LB1D1 |
Departure
| Time | 2026-04-30 20:45 |
|---|---|
| Airport | Sangster International Airport (MKJS) |
Arrival
| Time | 2026-04-30 21:59 |
|---|---|
| Airport | Miami International Airport (KMIA) |
| Time | Latitude | Longitude | Altitude | Speed | Heading |
|---|---|---|---|---|---|
| 2026-04-30 20:44 | 18.56034 | -77.92522 | 2930 ft | 252 kts | 2° |
| 2026-04-30 20:45 | 18.59678 | -77.92310 | 3329 ft | 267 kts | 8° |
| 2026-04-30 20:45 | 18.61578 | -77.92152 | 4068 ft | 277 kts | 6° |
| 2026-04-30 20:45 | 18.63518 | -77.92132 | 5127 ft | 280 kts | 359° |
| 2026-04-30 20:46 | 18.69356 | -77.93088 | 8252 ft | 288 kts | 349° |
| 2026-04-30 20:46 | 18.70671 | -77.93356 | 8926 ft | 292 kts | 350° |
| 2026-04-30 20:47 | 18.74746 | -77.93984 | 10845 ft | 307 kts | 352° |
| 2026-04-30 20:47 | 18.76929 | -77.94279 | 11414 ft | 326 kts | 352° |
| 2026-04-30 20:48 | 18.82346 | -77.95109 | 13220 ft | 345 kts | 351° |
| 2026-04-30 20:48 | 18.84738 | -77.95488 | 14083 ft | 349 kts | 351° |
| 2026-04-30 20:48 | 18.86367 | -77.95743 | 14550 ft | 353 kts | 351° |
| 2026-04-30 20:48 | 18.88798 | -77.96122 | 15373 ft | 355 kts | 351° |
| 2026-04-30 20:49 | 18.91273 | -77.96501 | 16108 ft | 361 kts | 351° |
| 2026-04-30 20:49 | 18.93778 | -77.96881 | 16817 ft | 367 kts | 351° |
| 2026-04-30 20:49 | 18.96309 | -77.97263 | 17642 ft | 369 kts | 351° |
| 2026-04-30 20:50 | 19.01468 | -77.98042 | 19094 ft | 376 kts | 351° |
| 2026-04-30 20:50 | 19.04074 | -77.98434 | 19796 ft | 382 kts | 351° |
| 2026-04-30 20:50 | 19.06710 | -77.98832 | 20559 ft | 383 kts | 351° |
| 2026-04-30 20:50 | 19.09363 | -77.99234 | 21225 ft | 390 kts | 351° |
| 2026-04-30 20:51 | 19.12041 | -77.99640 | 21910 ft | 394 kts | 351° |
| 2026-04-30 20:51 | 19.17557 | -78.00477 | 23418 ft | 402 kts | 351° |
| 2026-04-30 20:51 | 19.20302 | -78.00893 | 24036 ft | 406 kts | 351° |
| 2026-04-30 20:52 | 19.23109 | -78.01319 | 24654 ft | 410 kts | 351° |
| 2026-04-30 20:52 | 19.25947 | -78.01750 | 25282 ft | 414 kts | 351° |
| 2026-04-30 20:52 | 19.31705 | -78.02625 | 26543 ft | 422 kts | 350° |
| 2026-04-30 20:53 | 19.34625 | -78.03069 | 27162 ft | 426 kts | 350° |
| 2026-04-30 20:53 | 19.37573 | -78.03517 | 27774 ft | 430 kts | 350° |
| 2026-04-30 20:53 | 19.40549 | -78.03970 | 28377 ft | 434 kts | 351° |
| 2026-04-30 20:54 | 19.46594 | -78.04890 | 29559 ft | 443 kts | 351° |
| 2026-04-30 20:54 | 19.49653 | -78.05355 | 30117 ft | 446 kts | 351° |
| 2026-04-30 20:54 | 19.52742 | -78.05825 | 30585 ft | 450 kts | 350° |
| 2026-04-30 20:55 | 19.58999 | -78.06779 | 31534 ft | 458 kts | 349° |
| 2026-04-30 20:55 | 19.62162 | -78.07261 | 32017 ft | 461 kts | 349° |
| 2026-04-30 20:55 | 19.65349 | -78.07747 | 32469 ft | 465 kts | 349° |
| 2026-04-30 20:56 | 19.71795 | -78.08732 | 33353 ft | 471 kts | 349° |
| 2026-04-30 20:56 | 19.75047 | -78.09229 | 33816 ft | 473 kts | 349° |
| 2026-04-30 20:56 | 19.81563 | -78.10224 | 34683 ft | 475 kts | 349° |
| 2026-04-30 20:57 | 19.84846 | -78.10725 | 34994 ft | 478 kts | 349° |
| 2026-04-30 20:57 | 19.88145 | -78.11230 | 35360 ft | 479 kts | 349° |
| 2026-04-30 20:57 | 19.91439 | -78.11733 | 35847 ft | 478 kts | 349° |
| 2026-04-30 20:58 | 19.98009 | -78.12737 | 36733 ft | 476 kts | 348° |
| 2026-04-30 20:58 | 20.01291 | -78.13240 | 37175 ft | 476 kts | 348° |
| 2026-04-30 20:58 | 20.04560 | -78.13741 | 37592 ft | 475 kts | 348° |
| 2026-04-30 20:58 | 20.07832 | -78.14243 | 38035 ft | 474 kts | 348° |
| 2026-04-30 20:59 | 20.14345 | -78.15243 | 38812 ft | 472 kts | 348° |
| 2026-04-30 20:59 | 20.17591 | -78.15741 | 39116 ft | 472 kts | 348° |
| 2026-04-30 21:00 | 20.24087 | -78.16740 | 39739 ft | 471 kts | 348° |
| 2026-04-30 21:00 | 20.30581 | -78.17739 | 39917 ft | 472 kts | 348° |
| 2026-04-30 21:01 | 20.40352 | -78.19244 | 39914 ft | 474 kts | 348° |
| 2026-04-30 21:02 | 20.50146 | -78.20754 | 39906 ft | 474 kts | 348° |
| 2026-04-30 21:02 | 20.56671 | -78.21760 | 39906 ft | 474 kts | 348° |
| 2026-04-30 21:03 | 20.63191 | -78.22767 | 39902 ft | 474 kts | 348° |
| 2026-04-30 21:03 | 20.69718 | -78.23776 | 39903 ft | 474 kts | 348° |
| 2026-04-30 21:04 | 20.76239 | -78.24785 | 39904 ft | 473 kts | 349° |
| 2026-04-30 21:04 | 20.86001 | -78.26296 | 39906 ft | 472 kts | 349° |
| 2026-04-30 21:05 | 20.92506 | -78.27305 | 39906 ft | 472 kts | 349° |
| 2026-04-30 21:05 | 20.99017 | -78.28315 | 39905 ft | 472 kts | 349° |
| 2026-04-30 21:06 | 21.05523 | -78.29326 | 39903 ft | 472 kts | 349° |
| 2026-04-30 21:06 | 21.12031 | -78.30338 | 39903 ft | 472 kts | 349° |
| 2026-04-30 21:07 | 21.18488 | -78.31342 | 39898 ft | 472 kts | 349° |
| 2026-04-30 21:07 | 21.24992 | -78.32355 | 39897 ft | 472 kts | 349° |
| 2026-04-30 21:08 | 21.31499 | -78.33369 | 39897 ft | 472 kts | 349° |
| 2026-04-30 21:08 | 21.38008 | -78.34385 | 39898 ft | 472 kts | 349° |
| 2026-04-30 21:09 | 21.44500 | -78.35400 | 39894 ft | 470 kts | 349° |
| 2026-04-30 21:09 | 21.50967 | -78.36410 | 39894 ft | 470 kts | 349° |
| 2026-04-30 21:10 | 21.57436 | -78.37421 | 39892 ft | 469 kts | 349° |
| 2026-04-30 21:10 | 21.63899 | -78.38433 | 39892 ft | 469 kts | 349° |
| 2026-04-30 21:11 | 21.70364 | -78.39446 | 39892 ft | 469 kts | 349° |
| 2026-04-30 21:11 | 21.76815 | -78.40459 | 39894 ft | 467 kts | 351° |
| 2026-04-30 21:12 | 21.83236 | -78.41467 | 39895 ft | 465 kts | 351° |
| 2026-04-30 21:12 | 21.89640 | -78.42473 | 39895 ft | 465 kts | 351° |
| 2026-04-30 21:13 | 21.96043 | -78.43480 | 39897 ft | 465 kts | 351° |
| 2026-04-30 21:13 | 22.02449 | -78.44489 | 39897 ft | 465 kts | 351° |
| 2026-04-30 21:14 | 22.08843 | -78.45497 | 39906 ft | 463 kts | 351° |
| 2026-04-30 21:14 | 22.15208 | -78.46501 | 39906 ft | 461 kts | 351° |
| 2026-04-30 21:15 | 22.21562 | -78.47504 | 39913 ft | 461 kts | 351° |
| 2026-04-30 21:15 | 22.27913 | -78.48507 | 39913 ft | 461 kts | 351° |
| 2026-04-30 21:16 | 22.34264 | -78.49511 | 39915 ft | 461 kts | 351° |
| 2026-04-30 21:16 | 22.40619 | -78.50518 | 39904 ft | 462 kts | 351° |
| 2026-04-30 21:17 | 22.46978 | -78.51526 | 39908 ft | 462 kts | 351° |
| 2026-04-30 21:17 | 22.53338 | -78.52535 | 39923 ft | 462 kts | 351° |
| 2026-04-30 21:18 | 22.59701 | -78.53545 | 39923 ft | 462 kts | 351° |
| 2026-04-30 21:18 | 22.66057 | -78.54555 | 39937 ft | 462 kts | 351° |
| 2026-04-30 21:19 | 22.72425 | -78.55568 | 39944 ft | 463 kts | 351° |
| 2026-04-30 21:19 | 22.78809 | -78.56588 | 39930 ft | 465 kts | 350° |
| 2026-04-30 21:20 | 22.85185 | -78.57787 | 39937 ft | 465 kts | 349° |
| 2026-04-30 21:20 | 22.91514 | -78.58997 | 39933 ft | 465 kts | 349° |
| 2026-04-30 21:21 | 22.97881 | -78.60202 | 39940 ft | 465 kts | 349° |
| 2026-04-30 21:22 | 23.07443 | -78.62006 | 39945 ft | 466 kts | 349° |
| 2026-04-30 21:23 | 23.20221 | -78.64418 | 39954 ft | 466 kts | 349° |
| 2026-04-30 21:23 | 23.29807 | -78.66230 | 39945 ft | 466 kts | 349° |
| 2026-04-30 21:24 | 23.36196 | -78.67439 | 39958 ft | 466 kts | 349° |
| 2026-04-30 21:24 | 23.42581 | -78.68648 | 39954 ft | 466 kts | 349° |
| 2026-04-30 21:25 | 23.52151 | -78.70466 | 39951 ft | 465 kts | 349° |
| 2026-04-30 21:26 | 23.61712 | -78.72280 | 39959 ft | 465 kts | 349° |
| 2026-04-30 21:27 | 23.71268 | -78.74097 | 39960 ft | 464 kts | 349° |
| 2026-04-30 21:27 | 23.77621 | -78.75307 | 39962 ft | 463 kts | 349° |
| 2026-04-30 21:28 | 23.87148 | -78.77124 | 39957 ft | 463 kts | 349° |
| 2026-04-30 21:29 | 23.96674 | -78.78962 | 39953 ft | 463 kts | 347° |
| 2026-04-30 21:29 | 24.05413 | -78.83116 | 39962 ft | 457 kts | 328° |
| 2026-04-30 21:30 | 24.10849 | -78.86725 | 39963 ft | 457 kts | 328° |
| 2026-04-30 21:31 | 24.24437 | -78.95735 | 39963 ft | 457 kts | 328° |
| 2026-04-30 21:32 | 24.32588 | -79.01143 | 39961 ft | 457 kts | 328° |
| 2026-04-30 21:32 | 24.37988 | -79.04729 | 39961 ft | 457 kts | 328° |
| 2026-04-30 21:33 | 24.46133 | -79.10146 | 39962 ft | 456 kts | 328° |
| 2026-04-30 21:34 | 24.51551 | -79.13756 | 39962 ft | 455 kts | 328° |
| 2026-04-30 21:34 | 24.56036 | -79.16744 | 39590 ft | 438 kts | 328° |
| 2026-04-30 21:34 | 24.58620 | -79.18467 | 38554 ft | 433 kts | 329° |
| 2026-04-30 21:35 | 24.61208 | -79.20194 | 36994 ft | 437 kts | 329° |
| 2026-04-30 21:35 | 24.63824 | -79.21939 | 35454 ft | 442 kts | 328° |
| 2026-04-30 21:35 | 24.66457 | -79.23698 | 34063 ft | 444 kts | 328° |
| 2026-04-30 21:35 | 24.69064 | -79.25440 | 33100 ft | 434 kts | 328° |
| 2026-04-30 21:36 | 24.71659 | -79.27175 | 32246 ft | 440 kts | 328° |
| 2026-04-30 21:36 | 24.74296 | -79.28940 | 31363 ft | 446 kts | 328° |
| 2026-04-30 21:37 | 24.82275 | -79.34283 | 29276 ft | 449 kts | 328° |
| 2026-04-30 21:37 | 24.84937 | -79.36071 | 28559 ft | 446 kts | 328° |
| 2026-04-30 21:37 | 24.87580 | -79.37843 | 27873 ft | 443 kts | 328° |
| 2026-04-30 21:37 | 24.90166 | -79.39576 | 27206 ft | 440 kts | 328° |
| 2026-04-30 21:38 | 24.92805 | -79.41347 | 26526 ft | 437 kts | 328° |
| 2026-04-30 21:38 | 24.95361 | -79.43063 | 25879 ft | 434 kts | 328° |
| 2026-04-30 21:38 | 24.97935 | -79.44793 | 25193 ft | 432 kts | 328° |
| 2026-04-30 21:38 | 25.00487 | -79.46509 | 24525 ft | 429 kts | 328° |
| 2026-04-30 21:39 | 25.03012 | -79.48207 | 24245 ft | 417 kts | 328° |
| 2026-04-30 21:39 | 25.05435 | -79.49836 | 24126 ft | 400 kts | 328° |
| 2026-04-30 21:39 | 25.07762 | -79.51403 | 24006 ft | 385 kts | 327° |
| 2026-04-30 21:39 | 25.10023 | -79.52926 | 23558 ft | 380 kts | 327° |
| 2026-04-30 21:40 | 25.12286 | -79.54454 | 22864 ft | 381 kts | 327° |
| 2026-04-30 21:40 | 25.14540 | -79.55974 | 22277 ft | 379 kts | 327° |
| 2026-04-30 21:40 | 25.16779 | -79.57484 | 21693 ft | 376 kts | 327° |
| 2026-04-30 21:40 | 25.19001 | -79.58983 | 21139 ft | 373 kts | 327° |
| 2026-04-30 21:41 | 25.21211 | -79.60474 | 20575 ft | 371 kts | 327° |
| 2026-04-30 21:41 | 25.23407 | -79.61958 | 20015 ft | 369 kts | 327° |
| 2026-04-30 21:41 | 25.25589 | -79.63432 | 19443 ft | 367 kts | 327° |
| 2026-04-30 21:41 | 25.27757 | -79.64897 | 18926 ft | 365 kts | 327° |
| 2026-04-30 21:42 | 25.29918 | -79.66359 | 18340 ft | 363 kts | 327° |
| 2026-04-30 21:42 | 25.32070 | -79.67815 | 17720 ft | 361 kts | 327° |
| 2026-04-30 21:42 | 25.34203 | -79.69259 | 17178 ft | 357 kts | 327° |
| 2026-04-30 21:42 | 25.36306 | -79.70683 | 16670 ft | 352 kts | 327° |
| 2026-04-30 21:43 | 25.38323 | -79.72168 | 16151 ft | 346 kts | 320° |
| 2026-04-30 21:43 | 25.39951 | -79.74093 | 15727 ft | 341 kts | 306° |
| 2026-04-30 21:43 | 25.41344 | -79.76216 | 15370 ft | 342 kts | 304° |
| 2026-04-30 21:43 | 25.42712 | -79.78364 | 15021 ft | 340 kts | 304° |
| 2026-04-30 21:44 | 25.44071 | -79.80498 | 14672 ft | 338 kts | 304° |
| 2026-04-30 21:44 | 25.45425 | -79.82617 | 14313 ft | 336 kts | 304° |
| 2026-04-30 21:44 | 25.46772 | -79.84724 | 13967 ft | 334 kts | 304° |
| 2026-04-30 21:44 | 25.48114 | -79.86820 | 13609 ft | 333 kts | 304° |
| 2026-04-30 21:45 | 25.49449 | -79.88904 | 13235 ft | 331 kts | 304° |
| 2026-04-30 21:45 | 25.50778 | -79.90980 | 12875 ft | 330 kts | 304° |
| 2026-04-30 21:45 | 25.52102 | -79.93048 | 12546 ft | 329 kts | 304° |
| 2026-04-30 21:45 | 25.53402 | -79.95080 | 12307 ft | 317 kts | 304° |
| 2026-04-30 21:46 | 25.54652 | -79.97034 | 12080 ft | 304 kts | 304° |
| 2026-04-30 21:46 | 25.55837 | -79.98887 | 11790 ft | 293 kts | 304° |
| 2026-04-30 21:46 | 25.56992 | -80.00695 | 11523 ft | 287 kts | 304° |
| 2026-04-30 21:46 | 25.58141 | -80.02496 | 11157 ft | 285 kts | 304° |
| 2026-04-30 21:47 | 25.59288 | -80.04295 | 10848 ft | 287 kts | 304° |
| 2026-04-30 21:47 | 25.60438 | -80.06097 | 10404 ft | 285 kts | 305° |
| 2026-04-30 21:47 | 25.61580 | -80.07885 | 10059 ft | 284 kts | 304° |
| 2026-04-30 21:47 | 25.62713 | -80.09662 | 9743 ft | 281 kts | 304° |
| 2026-04-30 21:48 | 25.63840 | -80.11430 | 9425 ft | 281 kts | 304° |
| 2026-04-30 21:48 | 25.64957 | -80.13192 | 9122 ft | 279 kts | 304° |
| 2026-04-30 21:48 | 25.65911 | -80.15050 | 8844 ft | 277 kts | 296° |
| 2026-04-30 21:48 | 25.66742 | -80.16971 | 8602 ft | 275 kts | 295° |
| 2026-04-30 21:49 | 25.67551 | -80.18885 | 8353 ft | 273 kts | 295° |
| 2026-04-30 21:49 | 25.68354 | -80.20787 | 8114 ft | 272 kts | 295° |
| 2026-04-30 21:49 | 25.69157 | -80.22687 | 7909 ft | 272 kts | 295° |
| 2026-04-30 21:49 | 25.69958 | -80.24580 | 7624 ft | 271 kts | 295° |
| 2026-04-30 21:50 | 25.70748 | -80.26480 | 7366 ft | 270 kts | 292° |
| 2026-04-30 21:50 | 25.71184 | -80.28485 | 7128 ft | 268 kts | 274° |
| 2026-04-30 21:50 | 25.71166 | -80.30553 | 6875 ft | 268 kts | 268° |
| 2026-04-30 21:50 | 25.71057 | -80.32608 | 6638 ft | 267 kts | 267° |
| 2026-04-30 21:51 | 25.70948 | -80.34660 | 6402 ft | 266 kts | 267° |
| 2026-04-30 21:51 | 25.70844 | -80.36698 | 6147 ft | 266 kts | 267° |
| 2026-04-30 21:51 | 25.70741 | -80.38741 | 5900 ft | 263 kts | 267° |
| 2026-04-30 21:51 | 25.70641 | -80.40770 | 5663 ft | 263 kts | 267° |
| 2026-04-30 21:52 | 25.70542 | -80.42795 | 5432 ft | 263 kts | 267° |
| 2026-04-30 21:52 | 25.70439 | -80.44811 | 5217 ft | 260 kts | 266° |
| 2026-04-30 21:52 | 25.70274 | -80.46803 | 5100 ft | 260 kts | 264° |
| 2026-04-30 21:52 | 25.70169 | -80.48784 | 4954 ft | 252 kts | 273° |
| 2026-04-30 21:53 | 25.70640 | -80.50602 | 4202 ft | 252 kts | 302° |
| 2026-04-30 21:53 | 25.71851 | -80.52061 | 3567 ft | 263 kts | 316° |
| 2026-04-30 21:53 | 25.73399 | -80.53144 | 3024 ft | 272 kts | 341° |
| 2026-04-30 21:53 | 25.75267 | -80.53240 | 2832 ft | 265 kts | 13° |
| 2026-04-30 21:54 | 25.76767 | -80.52203 | 2734 ft | 251 kts | 51° |
| 2026-04-30 21:54 | 25.77547 | -80.50570 | 2655 ft | 237 kts | 69° |
| 2026-04-30 21:54 | 25.78139 | -80.48885 | 2529 ft | 226 kts | 78° |
| 2026-04-30 21:54 | 25.78227 | -80.47222 | 2439 ft | 208 kts | 96° |
| 2026-04-30 21:55 | 25.78147 | -80.45670 | 2343 ft | 195 kts | 97° |
| 2026-04-30 21:55 | 25.78093 | -80.44229 | 2248 ft | 185 kts | 94° |
| 2026-04-30 21:55 | 25.78130 | -80.42790 | 2077 ft | 184 kts | 90° |
| 2026-04-30 21:55 | 25.78204 | -80.41395 | 1816 ft | 178 kts | 92° |
| 2026-04-30 21:56 | 25.78255 | -80.40077 | 1564 ft | 166 kts | 91° |
| 2026-04-30 21:56 | 25.78304 | -80.38857 | 1357 ft | 152 kts | 92° |
| 2026-04-30 21:56 | 25.78352 | -80.37711 | 1145 ft | 145 kts | 90° |
| 2026-04-30 21:56 | 25.78422 | -80.36631 | 948 ft | 136 kts | 93° |
| 2026-04-30 21:57 | 25.78476 | -80.35635 | 803 ft | 124 kts | 95° |
| 2026-04-30 21:57 | 25.78476 | -80.34684 | 607 ft | 124 kts | 93° |
| 2026-04-30 21:57 | 25.78517 | -80.33712 | 451 ft | 127 kts | 91° |
| 2026-04-30 21:57 | 25.78560 | -80.32757 | 307 ft | 121 kts | 89° |
| 2026-04-30 21:58 | 25.78602 | -80.31826 | 143 ft | 119 kts | 91° |
| 2026-04-30 21:58 | 25.78634 | -80.30913 | 35 ft | 114 kts | 92° |
| 2026-04-30 21:58 | 25.78666 | -80.30143 | 27 ft | 73 kts | 87° |
| 2026-04-30 21:58 | 25.78682 | -80.29701 | 28 ft | 52 kts | 88° |
| 2026-04-30 21:59 | 25.78709 | -80.29323 | 28 ft | 46 kts | 76° |
| 2026-04-30 21:59 | 25.78809 | -80.29132 | 29 ft | 22 kts | 65° |
| 2026-04-30 21:59 | 25.78820 | -80.29065 | 29 ft | 5 kts | 84° |
| 2026-04-30 22:00 | 25.78846 | -80.28933 | 29 ft | 4 kts | 75° |
| 2026-04-30 22:00 | 25.78864 | -80.28880 | 31 ft | 7 kts | 50° |
| 2026-04-30 22:00 | 25.78916 | -80.28883 | 28 ft | 9 kts | 320° |
| 2026-04-30 22:01 | 25.78924 | -80.28957 | 30 ft | 12 kts | 256° |
| 2026-04-30 22:01 | 25.78904 | -80.29062 | 28 ft | 16 kts | 265° |
| 2026-04-30 22:01 | 25.78898 | -80.29208 | 29 ft | 21 kts | 267° |
| 2026-04-30 22:01 | 25.78891 | -80.29360 | 32 ft | 18 kts | 267° |
| 2026-04-30 22:02 | 25.78886 | -80.29504 | 30 ft | 20 kts | 268° |
| 2026-04-30 22:02 | 25.78879 | -80.29676 | 29 ft | 25 kts | 267° |
| 2026-04-30 22:02 | 25.78871 | -80.29840 | 30 ft | 21 kts | 267° |
| 2026-04-30 22:02 | 25.78866 | -80.29966 | 31 ft | 2 kts | 267° |
| 2026-04-30 22:03 | 25.78865 | -80.29996 | 31 ft | 7 kts | 267° |
| 2026-04-30 22:03 | 25.78862 | -80.30073 | 30 ft | 12 kts | 270° |
| 2026-04-30 22:03 | 25.78919 | -80.30122 | 29 ft | 11 kts | 2° |
| 2026-04-30 22:03 | 25.78982 | -80.30121 | 30 ft | 8 kts | 359° |
| 2026-04-30 22:04 | 25.79051 | -80.30123 | 30 ft | 12 kts | 359° |
| 2026-04-30 22:04 | 25.79104 | -80.30147 | 31 ft | 5 kts | 293° |
| 2026-04-30 22:04 | 25.79104 | -80.30208 | 30 ft | 0 kts | 267° |